TTPPTLPL

Guest
Details From TTPP - Trinidad/Piarco Intl
To TLPL - St. Lucia/Hewanorra Intl
Flight Number -
Tags generated
Created
Modified
Stats Distance 203 nm / 377 km
Max Altitude 24,600 ft / 7,498 m
Waypoints 6
Social Downloads 3
Likes 0
Share VATSIM

Download

Looking for another format? Having issues loading an existing format? Contact us
Advertisement - Login to hide

Notes

Basic altitude profile: - Ascent Rate: 2500ft/min - Ascent Speed: 250kts - Cruise Altitude: 35000ft - Cruise Speed: 420kts - Descent Rate: 1500ft/min - Descent Speed: 250kts Options: - Use NATs: yes - Use PACOTS: yes - Use low airways: yes - Use high airways: yes

Route

TTPP GND A324 RIBOR TLPL

ID Type Via Altitude Latitude Longitude Leg Dist Tot Dist Heading (true) Name
O TTPP APT - 0 ft / 0 m 10.59537˚ -61.33724˚ - 0 nm - Trinidad/Piarco Intl
GND VOR - 24,600 ft / 7,498 m 12.00128˚ -61.78544˚ 88 nm 88 nm 343° / 343° MAURICE BISHOP VOR-DME
RESAS FIX A324 (AWY-LO) 15,500 ft / 4,724 m 12.56828˚ -61.50783˚ 37 nm 126 nm 26° / 26° -
SV NDB A324 (AWY-LO) 8,300 ft / 2,530 m 13.14064˚ -61.22617˚ 38 nm 164 nm 26° / 26° E.T. JOSHUA NDB
RIBOR FIX A324 (AWY-LO) 6,000 ft / 1,829 m 13.38228˚ -61.12478˚ 15 nm 180 nm 22° / 22° -
O TLPL APT - 0 ft / 0 m 13.73319˚ -60.95260˚ 23 nm 203 nm 25° / 26° St. Lucia/Hewanorra Intl

Altitude Profile

Advertisement - Login to hide

Weather


0- 5 10 15 20 25 30 35+ Temperature / ° C

Clouds and Precipitation
Forecast for 2017-12-14 06:00 UTC. Updated 2 hours ago

Ground ~20,000 ft ~40,000 ft Winds

TTPP

Details ICAO TTPP (POS)
Name Trinidad/Piarco Intl
Region Trinidad and Tobago
Timezone America/Port_of_Spain (UTC-4.0)
Stats Elevation 57 ft / 17 m (AMSL)
Location 10.595370° -61.337239°
Runways 1
Magnetic Variation 15.000° W

METAR

TTPP 140600Z 00000KT 9999 FEW016 24/23 Q1013 NOSIG

Decode

TAF

Not found

Departure Runways

ID Width Length Bearing (true) Bearing (mag) Surface Threshold Offset Overrun Length
10 151 ft / 46 m 10,486 ft / 3,196 m 89.83° 104.83° Asphalt 0 ft / 0 m 79 ft / 24 m
28 151 ft / 46 m 10,486 ft / 3,196 m 269.84° 284.84° Asphalt 0 ft / 0 m 184 ft / 56 m

TLPL

Details ICAO TLPL (UVF)
Name St. Lucia/Hewanorra Intl
Region Saint Lucia
Timezone America/St_Lucia (UTC-4.0)
Stats Elevation 14 ft / 4 m (AMSL)
Location 13.733194° -60.952599°
Runways 1
Magnetic Variation 15.092° W

METAR

TLPL 140600Z 10014KT 9999 -SHRA BKN023 27/23 Q1014 NOSIG

Decode

TAF

Not found

Destination Runways

ID Width Length Bearing (true) Bearing (mag) Surface Threshold Offset Overrun Length
10 148 ft / 45 m 8,979 ft / 2,737 m 90.01° 105.10° Asphalt 0 ft / 0 m 200 ft / 61 m
28 148 ft / 45 m 8,979 ft / 2,737 m 270.01° 285.10° Asphalt 459 ft / 140 m 0 ft / 0 m

Popular Alternatives